sensor_id;sensor_type;location;lat;lon;timestamp;P1;durP1;ratioP1;P2;durP2;ratioP2
9306;SDS011;4691;47.612;7.610;2023-04-01T00:01:50;5.05;;;0.60;;
9306;SDS011;4691;47.612;7.610;2023-04-01T00:04:16;2.17;;;0.93;;
9306;SDS011;4691;47.612;7.610;2023-04-01T00:06:41;1.90;;;0.70;;
9306;SDS011;4691;47.612;7.610;2023-04-01T00:09:06;3.28;;;0.70;;
9306;SDS011;4691;47.612;7.610;2023-04-01T00:11:32;2.38;;;0.82;;
9306;SDS011;4691;47.612;7.610;2023-04-01T00:13:57;2.38;;;0.70;;
9306;SDS011;4691;47.612;7.610;2023-04-01T00:16:23;2.13;;;0.70;;
9306;SDS011;4691;47.612;7.610;2023-04-01T00:18:49;3.72;;;0.70;;
9306;SDS011;4691;47.612;7.610;2023-04-01T00:21:15;3.30;;;0.60;;
9306;SDS011;4691;47.612;7.610;2023-04-01T00:23:40;3.97;;;0.90;;
9306;SDS011;4691;47.612;7.610;2023-04-01T00:26:06;5.35;;;1.40;;
9306;SDS011;4691;47.612;7.610;2023-04-01T00:28:31;8.13;;;1.50;;
9306;SDS011;4691;47.612;7.610;2023-04-01T00:30:58;7.15;;;1.40;;
9306;SDS011;4691;47.612;7.610;2023-04-01T00:33:29;9.00;;;1.48;;
9306;SDS011;4691;47.612;7.610;2023-04-01T00:35:55;9.30;;;1.50;;
9306;SDS011;4691;47.612;7.610;2023-04-01T00:38:21;9.63;;;1.67;;
9306;SDS011;4691;47.612;7.610;2023-04-01T00:40:46;11.55;;;1.88;;
9306;SDS011;4691;47.612;7.610;2023-04-01T00:43:16;5.72;;;1.80;;
9306;SDS011;4691;47.612;7.610;2023-04-01T00:45:44;10.88;;;1.75;;
9306;SDS011;4691;47.612;7.610;2023-04-01T00:48:17;10.13;;;1.83;;
9306;SDS011;4691;47.612;7.610;2023-04-01T00:51:03;14.60;;;1.77;;
9306;SDS011;4691;47.612;7.610;2023-04-01T00:53:31;11.32;;;2.15;;
9306;SDS011;4691;47.612;7.610;2023-04-01T00:56:02;20.08;;;3.42;;
9306;SDS011;4691;47.612;7.610;2023-04-01T00:58:33;17.67;;;2.45;;
9306;SDS011;4691;47.612;7.610;2023-04-01T01:01:02;11.15;;;2.25;;
9306;SDS011;4691;47.612;7.610;2023-04-01T01:03:27;14.60;;;1.75;;
9306;SDS011;4691;47.612;7.610;2023-04-01T01:06:00;16.80;;;2.17;;
9306;SDS011;4691;47.612;7.610;2023-04-01T01:11:35;20.80;;;2.63;;
9306;SDS011;4691;47.612;7.610;2023-04-01T01:16:58;11.23;;;2.58;;
9306;SDS011;4691;47.612;7.610;2023-04-01T01:22:25;14.90;;;2.20;;
9306;SDS011;4691;47.612;7.610;2023-04-01T01:27:36;15.65;;;2.13;;
9306;SDS011;4691;47.612;7.610;2023-04-01T01:30:12;12.45;;;2.30;;
9306;SDS011;4691;47.612;7.610;2023-04-01T01:32:55;11.40;;;2.25;;
9306;SDS011;4691;47.612;7.610;2023-04-01T01:36:06;10.00;;;2.33;;
9306;SDS011;4691;47.612;7.610;2023-04-01T01:38:29;10.43;;;1.88;;
9306;SDS011;4691;47.612;7.610;2023-04-01T01:40:57;12.27;;;2.25;;
9306;SDS011;4691;47.612;7.610;2023-04-01T01:43:25;9.43;;;1.60;;
9306;SDS011;4691;47.612;7.610;2023-04-01T01:45:55;11.27;;;2.05;;
9306;SDS011;4691;47.612;7.610;2023-04-01T01:48:24;11.35;;;1.98;;
9306;SDS011;4691;47.612;7.610;2023-04-01T01:50:52;10.50;;;1.70;;
9306;SDS011;4691;47.612;7.610;2023-04-01T01:53:18;9.40;;;1.75;;
9306;SDS011;4691;47.612;7.610;2023-04-01T01:55:45;10.07;;;1.70;;
9306;SDS011;4691;47.612;7.610;2023-04-01T01:58:14;11.95;;;1.58;;
9306;SDS011;4691;47.612;7.610;2023-04-01T02:00:57;8.35;;;1.45;;
9306;SDS011;4691;47.612;7.610;2023-04-01T02:03:26;15.27;;;1.70;;
9306;SDS011;4691;47.612;7.610;2023-04-01T02:05:55;10.38;;;2.42;;
9306;SDS011;4691;47.612;7.610;2023-04-01T02:08:26;10.55;;;1.70;;
9306;SDS011;4691;47.612;7.610;2023-04-01T02:11:02;7.18;;;1.23;;
9306;SDS011;4691;47.612;7.610;2023-04-01T02:13:31;9.25;;;1.60;;
9306;SDS011;4691;47.612;7.610;2023-04-01T02:22:54;7.43;;;1.23;;
9306;SDS011;4691;47.612;7.610;2023-04-01T02:25:22;10.27;;;1.85;;
9306;SDS011;4691;47.612;7.610;2023-04-01T02:27:51;8.75;;;1.17;;
9306;SDS011;4691;47.612;7.610;2023-04-01T02:30:17;7.22;;;1.70;;
9306;SDS011;4691;47.612;7.610;2023-04-01T02:32:43;12.85;;;1.98;;
9306;SDS011;4691;47.612;7.610;2023-04-01T02:35:10;3.95;;;1.15;;
9306;SDS011;4691;47.612;7.610;2023-04-01T02:37:37;8.10;;;1.52;;
9306;SDS011;4691;47.612;7.610;2023-04-01T02:40:04;9.07;;;1.58;;
9306;SDS011;4691;47.612;7.610;2023-04-01T02:42:34;8.15;;;1.70;;
9306;SDS011;4691;47.612;7.610;2023-04-01T02:45:00;7.32;;;1.40;;
9306;SDS011;4691;47.612;7.610;2023-04-01T02:47:25;5.20;;;0.98;;
9306;SDS011;4691;47.612;7.610;2023-04-01T02:49:51;2.58;;;1.02;;
9306;SDS011;4691;47.612;7.610;2023-04-01T02:52:22;9.25;;;1.73;;
9306;SDS011;4691;47.612;7.610;2023-04-01T02:54:48;6.60;;;1.40;;
9306;SDS011;4691;47.612;7.610;2023-04-01T02:57:13;7.47;;;1.80;;
9306;SDS011;4691;47.612;7.610;2023-04-01T02:59:39;12.75;;;1.50;;
9306;SDS011;4691;47.612;7.610;2023-04-01T03:02:04;10.23;;;1.45;;
9306;SDS011;4691;47.612;7.610;2023-04-01T03:04:29;11.30;;;1.35;;
9306;SDS011;4691;47.612;7.610;2023-04-01T03:06:55;6.82;;;2.10;;
9306;SDS011;4691;47.612;7.610;2023-04-01T03:09:20;7.43;;;1.42;;
9306;SDS011;4691;47.612;7.610;2023-04-01T03:11:45;6.95;;;1.77;;
9306;SDS011;4691;47.612;7.610;2023-04-01T03:14:11;8.45;;;1.35;;
9306;SDS011;4691;47.612;7.610;2023-04-01T03:16:36;17.38;;;1.60;;
9306;SDS011;4691;47.612;7.610;2023-04-01T03:19:01;6.35;;;1.30;;
9306;SDS011;4691;47.612;7.610;2023-04-01T03:21:27;5.75;;;1.55;;
9306;SDS011;4691;47.612;7.610;2023-04-01T03:23:52;9.15;;;1.75;;
9306;SDS011;4691;47.612;7.610;2023-04-01T03:26:18;10.90;;;1.67;;
9306;SDS011;4691;47.612;7.610;2023-04-01T03:28:44;6.80;;;1.15;;
9306;SDS011;4691;47.612;7.610;2023-04-01T03:31:09;9.52;;;1.40;;
9306;SDS011;4691;47.612;7.610;2023-04-01T03:33:35;6.53;;;1.30;;
9306;SDS011;4691;47.612;7.610;2023-04-01T03:36:00;8.73;;;1.42;;
9306;SDS011;4691;47.612;7.610;2023-04-01T03:38:28;7.03;;;1.48;;
9306;SDS011;4691;47.612;7.610;2023-04-01T03:40:53;8.55;;;1.27;;
9306;SDS011;4691;47.612;7.610;2023-04-01T03:43:18;9.82;;;1.35;;
9306;SDS011;4691;47.612;7.610;2023-04-01T03:45:49;6.88;;;1.23;;
9306;SDS011;4691;47.612;7.610;2023-04-01T03:48:16;9.13;;;1.52;;
9306;SDS011;4691;47.612;7.610;2023-04-01T03:50:42;5.43;;;1.05;;
9306;SDS011;4691;47.612;7.610;2023-04-01T03:53:08;5.13;;;1.40;;
9306;SDS011;4691;47.612;7.610;2023-04-01T03:55:35;8.60;;;1.40;;
9306;SDS011;4691;47.612;7.610;2023-04-01T03:58:00;8.55;;;1.38;;
9306;SDS011;4691;47.612;7.610;2023-04-01T04:00:27;11.63;;;1.45;;
9306;SDS011;4691;47.612;7.610;2023-04-01T04:02:53;8.80;;;1.38;;
9306;SDS011;4691;47.612;7.610;2023-04-01T04:05:20;12.20;;;1.77;;
9306;SDS011;4691;47.612;7.610;2023-04-01T04:07:46;6.07;;;1.23;;
9306;SDS011;4691;47.612;7.610;2023-04-01T04:10:11;6.18;;;1.40;;
9306;SDS011;4691;47.612;7.610;2023-04-01T04:12:36;7.68;;;1.33;;
9306;SDS011;4691;47.612;7.610;2023-04-01T04:15:02;6.40;;;1.02;;
9306;SDS011;4691;47.612;7.610;2023-04-01T04:17:27;4.80;;;1.30;;
9306;SDS011;4691;47.612;7.610;2023-04-01T04:19:52;3.70;;;0.82;;
9306;SDS011;4691;47.612;7.610;2023-04-01T04:22:17;4.53;;;0.93;;
9306;SDS011;4691;47.612;7.610;2023-04-01T04:24:43;7.55;;;1.20;;
9306;SDS011;4691;47.612;7.610;2023-04-01T04:27:08;4.32;;;1.00;;
9306;SDS011;4691;47.612;7.610;2023-04-01T04:29:33;9.52;;;1.88;;
9306;SDS011;4691;47.612;7.610;2023-04-01T04:31:59;6.07;;;1.00;;
9306;SDS011;4691;47.612;7.610;2023-04-01T04:34:24;4.90;;;0.93;;
9306;SDS011;4691;47.612;7.610;2023-04-01T04:36:50;4.07;;;1.00;;
9306;SDS011;4691;47.612;7.610;2023-04-01T04:39:15;4.80;;;0.98;;
9306;SDS011;4691;47.612;7.610;2023-04-01T04:41:41;5.88;;;1.58;;
9306;SDS011;4691;47.612;7.610;2023-04-01T04:44:06;2.92;;;0.80;;
9306;SDS011;4691;47.612;7.610;2023-04-01T04:46:32;3.47;;;1.00;;
9306;SDS011;4691;47.612;7.610;2023-04-01T04:48:57;3.53;;;0.80;;
9306;SDS011;4691;47.612;7.610;2023-04-01T04:51:23;4.40;;;1.00;;
9306;SDS011;4691;47.612;7.610;2023-04-01T04:53:49;5.18;;;1.00;;
9306;SDS011;4691;47.612;7.610;2023-04-01T04:56:18;2.22;;;0.70;;
9306;SDS011;4691;47.612;7.610;2023-04-01T04:58:45;5.30;;;1.10;;
9306;SDS011;4691;47.612;7.610;2023-04-01T05:01:12;6.28;;;1.15;;
9306;SDS011;4691;47.612;7.610;2023-04-01T05:03:39;2.75;;;0.90;;
9306;SDS011;4691;47.612;7.610;2023-04-01T05:06:04;4.20;;;0.75;;
9306;SDS011;4691;47.612;7.610;2023-04-01T05:08:31;5.65;;;0.82;;
9306;SDS011;4691;47.612;7.610;2023-04-01T05:10:57;4.45;;;0.95;;
9306;SDS011;4691;47.612;7.610;2023-04-01T05:13:23;3.58;;;1.17;;
9306;SDS011;4691;47.612;7.610;2023-04-01T05:15:48;4.75;;;1.05;;
9306;SDS011;4691;47.612;7.610;2023-04-01T05:18:13;4.38;;;0.90;;
9306;SDS011;4691;47.612;7.610;2023-04-01T05:20:39;4.50;;;1.00;;
9306;SDS011;4691;47.612;7.610;2023-04-01T05:23:10;4.00;;;0.80;;
9306;SDS011;4691;47.612;7.610;2023-04-01T05:25:37;7.88;;;0.93;;
9306;SDS011;4691;47.612;7.610;2023-04-01T05:28:03;3.42;;;0.90;;
9306;SDS011;4691;47.612;7.610;2023-04-01T05:30:28;3.88;;;0.93;;
9306;SDS011;4691;47.612;7.610;2023-04-01T05:32:54;5.22;;;1.02;;
9306;SDS011;4691;47.612;7.610;2023-04-01T05:35:19;4.30;;;0.90;;
9306;SDS011;4691;47.612;7.610;2023-04-01T05:37:44;5.90;;;1.25;;
9306;SDS011;4691;47.612;7.610;2023-04-01T05:40:10;5.95;;;0.85;;
9306;SDS011;4691;47.612;7.610;2023-04-01T05:42:35;2.33;;;0.80;;
9306;SDS011;4691;47.612;7.610;2023-04-01T05:45:01;7.45;;;0.90;;
9306;SDS011;4691;47.612;7.610;2023-04-01T05:47:26;4.68;;;0.90;;
9306;SDS011;4691;47.612;7.610;2023-04-01T05:49:51;3.10;;;0.80;;
9306;SDS011;4691;47.612;7.610;2023-04-01T05:52:16;6.07;;;1.10;;
9306;SDS011;4691;47.612;7.610;2023-04-01T05:54:42;5.45;;;1.00;;
9306;SDS011;4691;47.612;7.610;2023-04-01T05:57:07;4.60;;;1.00;;
9306;SDS011;4691;47.612;7.610;2023-04-01T05:59:32;2.03;;;0.82;;
9306;SDS011;4691;47.612;7.610;2023-04-01T06:01:59;1.88;;;0.70;;
9306;SDS011;4691;47.612;7.610;2023-04-01T06:04:25;3.75;;;0.73;;
9306;SDS011;4691;47.612;7.610;2023-04-01T06:06:56;3.45;;;0.80;;
9306;SDS011;4691;47.612;7.610;2023-04-01T06:09:29;3.95;;;0.88;;
9306;SDS011;4691;47.612;7.610;2023-04-01T06:27:53;5.43;;;1.00;;
9306;SDS011;4691;47.612;7.610;2023-04-01T06:30:33;6.70;;;0.88;;
9306;SDS011;4691;47.612;7.610;2023-04-01T06:36:31;4.68;;;1.00;;
9306;SDS011;4691;47.612;7.610;2023-04-01T06:39:18;5.43;;;1.30;;
9306;SDS011;4691;47.612;7.610;2023-04-01T06:42:08;8.07;;;1.02;;
9306;SDS011;4691;47.612;7.610;2023-04-01T06:45:00;6.22;;;1.33;;
9306;SDS011;4691;47.612;7.610;2023-04-01T06:53:31;2.65;;;1.10;;
9306;SDS011;4691;47.612;7.610;2023-04-01T06:56:13;3.72;;;0.95;;
9306;SDS011;4691;47.612;7.610;2023-04-01T06:58:42;1.70;;;0.80;;
9306;SDS011;4691;47.612;7.610;2023-04-01T07:01:18;4.60;;;1.10;;
9306;SDS011;4691;47.612;7.610;2023-04-01T07:04:50;4.75;;;1.00;;
9306;SDS011;4691;47.612;7.610;2023-04-01T07:07:09;2.45;;;1.13;;
9306;SDS011;4691;47.612;7.610;2023-04-01T07:09:43;4.43;;;1.23;;
9306;SDS011;4691;47.612;7.610;2023-04-01T07:12:26;4.20;;;0.90;;
9306;SDS011;4691;47.612;7.610;2023-04-01T07:14:56;4.88;;;1.00;;
9306;SDS011;4691;47.612;7.610;2023-04-01T07:17:27;4.38;;;1.02;;
9306;SDS011;4691;47.612;7.610;2023-04-01T07:22:48;7.82;;;1.30;;
9306;SDS011;4691;47.612;7.610;2023-04-01T07:25:17;6.03;;;1.30;;
9306;SDS011;4691;47.612;7.610;2023-04-01T07:27:47;4.57;;;1.20;;
9306;SDS011;4691;47.612;7.610;2023-04-01T07:30:16;4.13;;;1.10;;
9306;SDS011;4691;47.612;7.610;2023-04-01T07:53:13;6.28;;;1.30;;
9306;SDS011;4691;47.612;7.610;2023-04-01T07:58:39;3.80;;;1.25;;
9306;SDS011;4691;47.612;7.610;2023-04-01T08:11:59;3.08;;;1.00;;
9306;SDS011;4691;47.612;7.610;2023-04-01T08:14:30;3.35;;;0.82;;
9306;SDS011;4691;47.612;7.610;2023-04-01T08:17:10;4.60;;;1.33;;
9306;SDS011;4691;47.612;7.610;2023-04-01T08:19:56;2.25;;;1.00;;
9306;SDS011;4691;47.612;7.610;2023-04-01T08:22:33;3.20;;;1.23;;
9306;SDS011;4691;47.612;7.610;2023-04-01T08:25:03;3.45;;;1.00;;
9306;SDS011;4691;47.612;7.610;2023-04-01T08:27:37;5.07;;;0.80;;
9306;SDS011;4691;47.612;7.610;2023-04-01T08:30:18;3.53;;;0.80;;
9306;SDS011;4691;47.612;7.610;2023-04-01T08:32:51;3.58;;;1.00;;
9306;SDS011;4691;47.612;7.610;2023-04-01T08:35:32;2.17;;;1.20;;
9306;SDS011;4691;47.612;7.610;2023-04-01T08:38:13;3.72;;;1.08;;
9306;SDS011;4691;47.612;7.610;2023-04-01T08:40:53;3.95;;;1.08;;
9306;SDS011;4691;47.612;7.610;2023-04-01T08:43:27;5.72;;;1.00;;
9306;SDS011;4691;47.612;7.610;2023-04-01T08:59:45;4.43;;;0.80;;
9306;SDS011;4691;47.612;7.610;2023-04-01T09:29:42;3.38;;;1.25;;
9306;SDS011;4691;47.612;7.610;2023-04-01T09:34:55;7.38;;;1.00;;
9306;SDS011;4691;47.612;7.610;2023-04-01T09:37:35;2.10;;;1.10;;
9306;SDS011;4691;47.612;7.610;2023-04-01T09:43:01;5.82;;;0.90;;
9306;SDS011;4691;47.612;7.610;2023-04-01T09:45:43;4.40;;;1.17;;
9306;SDS011;4691;47.612;7.610;2023-04-01T09:48:29;3.50;;;1.00;;
9306;SDS011;4691;47.612;7.610;2023-04-01T09:51:20;1.48;;;0.70;;
9306;SDS011;4691;47.612;7.610;2023-04-01T09:53:57;4.80;;;0.90;;
9306;SDS011;4691;47.612;7.610;2023-04-01T09:57:02;7.00;;;3.78;;
9306;SDS011;4691;47.612;7.610;2023-04-01T10:08:00;13.07;;;4.47;;
9306;SDS011;4691;47.612;7.610;2023-04-01T10:13:38;3.85;;;1.85;;
9306;SDS011;4691;47.612;7.610;2023-04-01T10:16:38;4.13;;;2.30;;
9306;SDS011;4691;47.612;7.610;2023-04-01T10:19:26;3.22;;;1.45;;
9306;SDS011;4691;47.612;7.610;2023-04-01T10:27:21;4.75;;;1.50;;
9306;SDS011;4691;47.612;7.610;2023-04-01T10:33:06;5.50;;;1.65;;
9306;SDS011;4691;47.612;7.610;2023-04-01T10:36:08;3.15;;;1.65;;
9306;SDS011;4691;47.612;7.610;2023-04-01T10:39:08;4.90;;;1.50;;
9306;SDS011;4691;47.612;7.610;2023-04-01T10:46:54;6.35;;;1.77;;
9306;SDS011;4691;47.612;7.610;2023-04-01T10:49:45;7.72;;;1.48;;
9306;SDS011;4691;47.612;7.610;2023-04-01T10:52:30;10.00;;;1.92;;
9306;SDS011;4691;47.612;7.610;2023-04-01T10:55:37;5.68;;;1.23;;
9306;SDS011;4691;47.612;7.610;2023-04-01T11:23:20;5.43;;;2.38;;
9306;SDS011;4691;47.612;7.610;2023-04-01T11:26:16;4.80;;;1.73;;
9306;SDS011;4691;47.612;7.610;2023-04-01T11:39:46;2.17;;;0.95;;
9306;SDS011;4691;47.612;7.610;2023-04-01T11:47:58;3.38;;;1.92;;
9306;SDS011;4691;47.612;7.610;2023-04-01T12:23:51;2.40;;;0.90;;
9306;SDS011;4691;47.612;7.610;2023-04-01T12:26:35;3.85;;;1.20;;
9306;SDS011;4691;47.612;7.610;2023-04-01T12:31:53;3.10;;;1.05;;
9306;SDS011;4691;47.612;7.610;2023-04-01T12:39:52;14.25;;;4.97;;
9306;SDS011;4691;47.612;7.610;2023-04-01T12:42:42;9.82;;;1.00;;
9306;SDS011;4691;47.612;7.610;2023-04-01T12:45:29;2.63;;;1.70;;
9306;SDS011;4691;47.612;7.610;2023-04-01T12:54:02;5.07;;;1.25;;
9306;SDS011;4691;47.612;7.610;2023-04-01T13:01:56;3.00;;;1.00;;
9306;SDS011;4691;47.612;7.610;2023-04-01T13:04:30;1.10;;;0.70;;
9306;SDS011;4691;47.612;7.610;2023-04-01T13:15:40;3.97;;;1.35;;
9306;SDS011;4691;47.612;7.610;2023-04-01T13:18:17;5.28;;;1.20;;
9306;SDS011;4691;47.612;7.610;2023-04-01T13:32:23;2.33;;;0.70;;
9306;SDS011;4691;47.612;7.610;2023-04-01T13:42:29;2.28;;;0.65;;
9306;SDS011;4691;47.612;7.610;2023-04-01T14:04:45;0.70;;;0.50;;
9306;SDS011;4691;47.612;7.610;2023-04-01T14:07:22;1.60;;;0.70;;
9306;SDS011;4691;47.612;7.610;2023-04-01T14:10:17;1.90;;;0.85;;
9306;SDS011;4691;47.612;7.610;2023-04-01T14:15:50;2.10;;;0.70;;
9306;SDS011;4691;47.612;7.610;2023-04-01T14:18:33;2.85;;;1.17;;
9306;SDS011;4691;47.612;7.610;2023-04-01T14:21:10;2.45;;;0.60;;
9306;SDS011;4691;47.612;7.610;2023-04-01T14:23:58;3.33;;;1.30;;
9306;SDS011;4691;47.612;7.610;2023-04-01T14:31:58;1.77;;;0.60;;
9306;SDS011;4691;47.612;7.610;2023-04-01T14:37:47;3.03;;;0.70;;
9306;SDS011;4691;47.612;7.610;2023-04-01T14:54:05;2.95;;;1.70;;
9306;SDS011;4691;47.612;7.610;2023-04-01T14:56:50;1.65;;;1.10;;
9306;SDS011;4691;47.612;7.610;2023-04-01T14:59:27;4.28;;;2.30;;
9306;SDS011;4691;47.612;7.610;2023-04-01T15:02:01;1.30;;;0.70;;
9306;SDS011;4691;47.612;7.610;2023-04-01T15:15:36;0.90;;;0.50;;
9306;SDS011;4691;47.612;7.610;2023-04-01T15:18:09;4.30;;;0.80;;
9306;SDS011;4691;47.612;7.610;2023-04-01T15:37:06;2.53;;;1.10;;
9306;SDS011;4691;47.612;7.610;2023-04-01T15:39:54;4.90;;;1.02;;
9306;SDS011;4691;47.612;7.610;2023-04-01T15:42:24;1.92;;;1.10;;
9306;SDS011;4691;47.612;7.610;2023-04-01T15:48:13;2.65;;;1.10;;
9306;SDS011;4691;47.612;7.610;2023-04-01T15:53:54;2.95;;;1.10;;
9306;SDS011;4691;47.612;7.610;2023-04-01T16:01:56;3.17;;;0.95;;
9306;SDS011;4691;47.612;7.610;2023-04-01T16:04:46;4.63;;;0.85;;
9306;SDS011;4691;47.612;7.610;2023-04-01T16:10:04;3.05;;;0.90;;
9306;SDS011;4691;47.612;7.610;2023-04-01T16:26:26;3.15;;;1.08;;
9306;SDS011;4691;47.612;7.610;2023-04-01T16:31:50;2.38;;;0.90;;
9306;SDS011;4691;47.612;7.610;2023-04-01T16:34:34;11.23;;;4.22;;
9306;SDS011;4691;47.612;7.610;2023-04-01T16:37:05;5.80;;;1.63;;
9306;SDS011;4691;47.612;7.610;2023-04-01T16:42:30;5.70;;;3.00;;
9306;SDS011;4691;47.612;7.610;2023-04-01T16:47:50;9.20;;;3.75;;
9306;SDS011;4691;47.612;7.610;2023-04-01T16:53:09;3.42;;;1.80;;
9306;SDS011;4691;47.612;7.610;2023-04-01T16:58:32;1.80;;;1.30;;
9306;SDS011;4691;47.612;7.610;2023-04-01T17:01:05;3.63;;;1.10;;
9306;SDS011;4691;47.612;7.610;2023-04-01T17:03:33;2.25;;;0.82;;
9306;SDS011;4691;47.612;7.610;2023-04-01T17:06:28;2.17;;;1.30;;
9306;SDS011;4691;47.612;7.610;2023-04-01T17:11:28;3.07;;;1.50;;
9306;SDS011;4691;47.612;7.610;2023-04-01T17:19:27;2.42;;;0.90;;
9306;SDS011;4691;47.612;7.610;2023-04-01T17:22:13;5.22;;;1.77;;
9306;SDS011;4691;47.612;7.610;2023-04-01T17:24:54;2.22;;;1.10;;
9306;SDS011;4691;47.612;7.610;2023-04-01T17:30:18;4.65;;;1.50;;
9306;SDS011;4691;47.612;7.610;2023-04-01T17:40:34;2.72;;;1.45;;
9306;SDS011;4691;47.612;7.610;2023-04-01T17:43:17;2.95;;;1.75;;
9306;SDS011;4691;47.612;7.610;2023-04-01T17:52:47;4.57;;;1.30;;
9306;SDS011;4691;47.612;7.610;2023-04-01T17:55:09;1.33;;;0.90;;
9306;SDS011;4691;47.612;7.610;2023-04-01T17:58:07;5.28;;;1.40;;
9306;SDS011;4691;47.612;7.610;2023-04-01T18:16:46;29.30;;;12.00;;
9306;SDS011;4691;47.612;7.610;2023-04-01T18:19:22;22.08;;;9.60;;
9306;SDS011;4691;47.612;7.610;2023-04-01T18:22:08;6.32;;;2.45;;
9306;SDS011;4691;47.612;7.610;2023-04-01T18:24:42;5.57;;;2.05;;
9306;SDS011;4691;47.612;7.610;2023-04-01T18:27:18;3.67;;;1.75;;
9306;SDS011;4691;47.612;7.610;2023-04-01T18:29:50;2.50;;;1.40;;
9306;SDS011;4691;47.612;7.610;2023-04-01T18:32:27;3.33;;;1.70;;
9306;SDS011;4691;47.612;7.610;2023-04-01T18:38:04;4.53;;;2.10;;
9306;SDS011;4691;47.612;7.610;2023-04-01T18:40:37;3.40;;;1.80;;
9306;SDS011;4691;47.612;7.610;2023-04-01T18:43:10;12.73;;;2.22;;
9306;SDS011;4691;47.612;7.610;2023-04-01T18:45:54;6.28;;;2.50;;
9306;SDS011;4691;47.612;7.610;2023-04-01T18:54:10;5.15;;;1.77;;
9306;SDS011;4691;47.612;7.610;2023-04-01T18:56:44;3.65;;;1.23;;
9306;SDS011;4691;47.612;7.610;2023-04-01T18:59:22;5.85;;;2.13;;
9306;SDS011;4691;47.612;7.610;2023-04-01T19:02:07;3.95;;;1.58;;
9306;SDS011;4691;47.612;7.610;2023-04-01T19:07:46;3.78;;;1.42;;
9306;SDS011;4691;47.612;7.610;2023-04-01T19:10:34;2.88;;;1.80;;
9306;SDS011;4691;47.612;7.610;2023-04-01T19:13:18;1.70;;;1.10;;
9306;SDS011;4691;47.612;7.610;2023-04-01T19:15:58;3.15;;;1.20;;
9306;SDS011;4691;47.612;7.610;2023-04-01T19:18:31;3.03;;;1.40;;
9306;SDS011;4691;47.612;7.610;2023-04-01T19:21:10;5.55;;;2.50;;
9306;SDS011;4691;47.612;7.610;2023-04-01T19:23:58;3.30;;;1.58;;
9306;SDS011;4691;47.612;7.610;2023-04-01T19:26:47;3.90;;;2.28;;
9306;SDS011;4691;47.612;7.610;2023-04-01T19:37:26;18.05;;;8.20;;
9306;SDS011;4691;47.612;7.610;2023-04-01T19:40:03;8.40;;;4.45;;
9306;SDS011;4691;47.612;7.610;2023-04-01T19:42:47;6.00;;;3.17;;
9306;SDS011;4691;47.612;7.610;2023-04-01T19:45:26;5.38;;;2.92;;
9306;SDS011;4691;47.612;7.610;2023-04-01T19:51:25;5.07;;;2.97;;
9306;SDS011;4691;47.612;7.610;2023-04-01T19:54:11;4.38;;;2.85;;
9306;SDS011;4691;47.612;7.610;2023-04-01T19:59:44;5.20;;;2.95;;
9306;SDS011;4691;47.612;7.610;2023-04-01T20:02:25;24.67;;;10.18;;
9306;SDS011;4691;47.612;7.610;2023-04-01T20:04:58;42.85;;;18.95;;
9306;SDS011;4691;47.612;7.610;2023-04-01T20:15:27;13.05;;;6.75;;
9306;SDS011;4691;47.612;7.610;2023-04-01T20:17:53;11.20;;;6.38;;
9306;SDS011;4691;47.612;7.610;2023-04-01T20:20:26;9.67;;;5.30;;
9306;SDS011;4691;47.612;7.610;2023-04-01T20:26:02;7.53;;;4.22;;
9306;SDS011;4691;47.612;7.610;2023-04-01T20:28:37;10.00;;;4.47;;
9306;SDS011;4691;47.612;7.610;2023-04-01T20:31:12;10.05;;;5.05;;
9306;SDS011;4691;47.612;7.610;2023-04-01T20:36:54;8.88;;;4.20;;
9306;SDS011;4691;47.612;7.610;2023-04-01T20:42:34;6.28;;;4.15;;
9306;SDS011;4691;47.612;7.610;2023-04-01T20:50:52;6.47;;;3.58;;
9306;SDS011;4691;47.612;7.610;2023-04-01T20:53:26;9.43;;;5.03;;
9306;SDS011;4691;47.612;7.610;2023-04-01T20:56:17;8.95;;;5.70;;
9306;SDS011;4691;47.612;7.610;2023-04-01T21:01:51;7.88;;;4.85;;
9306;SDS011;4691;47.612;7.610;2023-04-01T21:05:04;8.48;;;5.40;;
9306;SDS011;4691;47.612;7.610;2023-04-01T21:10:43;13.05;;;6.85;;
9306;SDS011;4691;47.612;7.610;2023-04-01T21:16:10;9.85;;;5.00;;
9306;SDS011;4691;47.612;7.610;2023-04-01T21:18:59;10.18;;;5.03;;
9306;SDS011;4691;47.612;7.610;2023-04-01T21:26:52;5.85;;;2.65;;
9306;SDS011;4691;47.612;7.610;2023-04-01T21:38:00;4.88;;;2.22;;
9306;SDS011;4691;47.612;7.610;2023-04-01T21:46:44;3.22;;;1.85;;
9306;SDS011;4691;47.612;7.610;2023-04-01T21:52:17;3.90;;;2.00;;
9306;SDS011;4691;47.612;7.610;2023-04-01T22:14:51;6.63;;;2.60;;
9306;SDS011;4691;47.612;7.610;2023-04-01T22:20:39;7.25;;;2.55;;
9306;SDS011;4691;47.612;7.610;2023-04-01T22:23:28;5.30;;;2.85;;
9306;SDS011;4691;47.612;7.610;2023-04-01T22:26:21;5.30;;;2.10;;
9306;SDS011;4691;47.612;7.610;2023-04-01T22:31:28;4.60;;;1.75;;
9306;SDS011;4691;47.612;7.610;2023-04-01T22:34:05;3.70;;;1.40;;
9306;SDS011;4691;47.612;7.610;2023-04-01T22:36:45;3.35;;;1.17;;
9306;SDS011;4691;47.612;7.610;2023-04-01T22:39:23;4.63;;;1.70;;
9306;SDS011;4691;47.612;7.610;2023-04-01T22:50:37;1.85;;;1.05;;
9306;SDS011;4691;47.612;7.610;2023-04-01T22:56:11;2.75;;;1.20;;
9306;SDS011;4691;47.612;7.610;2023-04-01T22:58:57;1.95;;;1.02;;
9306;SDS011;4691;47.612;7.610;2023-04-01T23:01:30;3.15;;;1.05;;
9306;SDS011;4691;47.612;7.610;2023-04-01T23:04:03;2.10;;;0.88;;
9306;SDS011;4691;47.612;7.610;2023-04-01T23:06:32;4.60;;;1.58;;
9306;SDS011;4691;47.612;7.610;2023-04-01T23:09:05;2.05;;;0.98;;
9306;SDS011;4691;47.612;7.610;2023-04-01T23:11:54;3.42;;;0.90;;
9306;SDS011;4691;47.612;7.610;2023-04-01T23:14:29;3.00;;;0.80;;
9306;SDS011;4691;47.612;7.610;2023-04-01T23:22:54;2.58;;;1.20;;
9306;SDS011;4691;47.612;7.610;2023-04-01T23:26:00;2.05;;;1.20;;
9306;SDS011;4691;47.612;7.610;2023-04-01T23:36:40;4.07;;;1.30;;
9306;SDS011;4691;47.612;7.610;2023-04-01T23:39:20;3.63;;;1.25;;
9306;SDS011;4691;47.612;7.610;2023-04-01T23:42:05;4.28;;;1.52;;
9306;SDS011;4691;47.612;7.610;2023-04-01T23:44:37;2.78;;;1.10;;
9306;SDS011;4691;47.612;7.610;2023-04-01T23:47:03;2.17;;;0.93;;
9306;SDS011;4691;47.612;7.610;2023-04-01T23:49:33;1.85;;;1.10;;
9306;SDS011;4691;47.612;7.610;2023-04-01T23:57:37;4.40;;;1.50;;
